Duce, Arkansas
Current Conditions -  °F | °C
As of 6:01 AM on Friday 24 Oct 2014 (Local Time) from KGLH Reporting Station
Clear Clear  
Wind Chill: 46°   Ceiling: Unl
Heat Index: 46°   Visibility: 7mi
Dew Point: 44°   Wind: 3mph
Humidity: 93%   Direction: 350°N
Pressure: 30.14"   Gusts: NA
Location:  33.7652°N, 91.2745°W
Report Text: KGLH 241101Z AUTO 35003KT 7SM CLR 08/07 A3014 RMK AO2 T00780067
Loading
Personal Weather Stations






























Interactive Weather Map
Tropical Storm Tracking
New forecast layout! Learn more

10-Day Weather Forecast

Advertisements
Track Severe Weather on mobile